sensor_id;sensor_type;location;lat;lon;timestamp;temperature;humidity
39503;DHT22;26970;49.900;10.774;2022-09-03T00:02:23;14.50;99.90
39503;DHT22;26970;49.900;10.774;2022-09-03T00:04:59;14.40;99.90
39503;DHT22;26970;49.900;10.774;2022-09-03T00:07:44;14.40;99.90
39503;DHT22;26970;49.900;10.774;2022-09-03T00:10:23;14.30;99.90
39503;DHT22;26970;49.900;10.774;2022-09-03T00:12:51;14.30;99.90
39503;DHT22;26970;49.900;10.774;2022-09-03T00:15:20;14.30;99.90
39503;DHT22;26970;49.900;10.774;2022-09-03T00:17:55;14.30;99.90
39503;DHT22;26970;49.900;10.774;2022-09-03T00:20:43;14.20;99.90
39503;DHT22;26970;49.900;10.774;2022-09-03T00:23:15;14.30;99.90
39503;DHT22;26970;49.900;10.774;2022-09-03T00:29:36;14.40;99.90
39503;DHT22;26970;49.900;10.774;2022-09-03T00:31:53;14.50;99.90
39503;DHT22;26970;49.900;10.774;2022-09-03T00:36:52;14.60;99.90
39503;DHT22;26970;49.900;10.774;2022-09-03T00:39:20;14.60;99.90
39503;DHT22;26970;49.900;10.774;2022-09-03T00:44:54;14.50;99.90
39503;DHT22;26970;49.900;10.774;2022-09-03T00:47:45;14.40;99.90
39503;DHT22;26970;49.900;10.774;2022-09-03T00:53:34;14.30;99.90
39503;DHT22;26970;49.900;10.774;2022-09-03T00:56:16;14.30;99.90
39503;DHT22;26970;49.900;10.774;2022-09-03T01:04:27;14.30;99.90
39503;DHT22;26970;49.900;10.774;2022-09-03T01:09:53;14.10;99.90
39503;DHT22;26970;49.900;10.774;2022-09-03T01:12:32;14.00;99.90
39503;DHT22;26970;49.900;10.774;2022-09-03T01:15:08;14.00;99.90
39503;DHT22;26970;49.900;10.774;2022-09-03T01:20:13;13.90;99.90
39503;DHT22;26970;49.900;10.774;2022-09-03T01:25:50;13.80;99.90
39503;DHT22;26970;49.900;10.774;2022-09-03T01:33:51;13.90;99.90
39503;DHT22;26970;49.900;10.774;2022-09-03T01:39:05;13.90;99.90
39503;DHT22;26970;49.900;10.774;2022-09-03T01:44:56;13.90;99.90
39503;DHT22;26970;49.900;10.774;2022-09-03T01:50:46;13.90;99.90
39503;DHT22;26970;49.900;10.774;2022-09-03T01:56:42;13.80;99.90
39503;DHT22;26970;49.900;10.774;2022-09-03T01:59:27;13.80;99.90
39503;DHT22;26970;49.900;10.774;2022-09-03T02:02:03;13.80;99.90
39503;DHT22;26970;49.900;10.774;2022-09-03T02:04:30;13.70;99.90
39503;DHT22;26970;49.900;10.774;2022-09-03T02:06:59;13.70;99.90
39503;DHT22;26970;49.900;10.774;2022-09-03T02:09:25;13.70;99.90
39503;DHT22;26970;49.900;10.774;2022-09-03T02:12:05;13.70;99.90
39503;DHT22;26970;49.900;10.774;2022-09-03T02:14:32;13.70;99.90
39503;DHT22;26970;49.900;10.774;2022-09-03T02:16:59;13.50;99.90
39503;DHT22;26970;49.900;10.774;2022-09-03T02:19:27;13.60;99.90
39503;DHT22;26970;49.900;10.774;2022-09-03T02:21:55;13.50;99.90
39503;DHT22;26970;49.900;10.774;2022-09-03T02:24:21;13.50;99.90
39503;DHT22;26970;49.900;10.774;2022-09-03T02:26:47;13.50;99.90
39503;DHT22;26970;49.900;10.774;2022-09-03T02:29:14;13.40;99.90
39503;DHT22;26970;49.900;10.774;2022-09-03T02:31:41;13.40;99.90
39503;DHT22;26970;49.900;10.774;2022-09-03T02:34:06;13.30;99.90
39503;DHT22;26970;49.900;10.774;2022-09-03T02:36:42;13.30;99.90
39503;DHT22;26970;49.900;10.774;2022-09-03T02:39:08;13.30;99.90
39503;DHT22;26970;49.900;10.774;2022-09-03T02:41:34;13.20;99.90
39503;DHT22;26970;49.900;10.774;2022-09-03T02:44:11;13.20;99.90
39503;DHT22;26970;49.900;10.774;2022-09-03T02:46:42;13.20;99.90
39503;DHT22;26970;49.900;10.774;2022-09-03T02:49:09;13.20;99.90
39503;DHT22;26970;49.900;10.774;2022-09-03T02:51:37;13.20;99.90
39503;DHT22;26970;49.900;10.774;2022-09-03T02:54:03;13.20;99.90
39503;DHT22;26970;49.900;10.774;2022-09-03T02:56:29;13.30;99.90
39503;DHT22;26970;49.900;10.774;2022-09-03T02:58:54;13.30;99.90
39503;DHT22;26970;49.900;10.774;2022-09-03T03:01:20;13.20;99.90
39503;DHT22;26970;49.900;10.774;2022-09-03T03:03:46;13.10;99.90
39503;DHT22;26970;49.900;10.774;2022-09-03T03:06:12;13.10;99.90
39503;DHT22;26970;49.900;10.774;2022-09-03T03:08:38;13.20;99.90
39503;DHT22;26970;49.900;10.774;2022-09-03T03:11:04;13.10;99.90
39503;DHT22;26970;49.900;10.774;2022-09-03T03:13:30;13.10;99.90
39503;DHT22;26970;49.900;10.774;2022-09-03T03:16:01;13.20;99.90
39503;DHT22;26970;49.900;10.774;2022-09-03T03:18:27;13.00;99.90
39503;DHT22;26970;49.900;10.774;2022-09-03T03:20:53;13.00;99.90
39503;DHT22;26970;49.900;10.774;2022-09-03T03:23:19;12.90;99.90
39503;DHT22;26970;49.900;10.774;2022-09-03T03:25:45;12.90;99.90
39503;DHT22;26970;49.900;10.774;2022-09-03T03:28:10;13.00;99.90
39503;DHT22;26970;49.900;10.774;2022-09-03T03:30:38;13.00;99.90
39503;DHT22;26970;49.900;10.774;2022-09-03T03:33:07;13.00;99.90
39503;DHT22;26970;49.900;10.774;2022-09-03T03:35:34;12.90;99.90
39503;DHT22;26970;49.900;10.774;2022-09-03T03:38:00;12.90;99.90
39503;DHT22;26970;49.900;10.774;2022-09-03T03:40:26;12.90;99.90
39503;DHT22;26970;49.900;10.774;2022-09-03T03:42:52;12.80;99.90
39503;DHT22;26970;49.900;10.774;2022-09-03T03:45:18;12.70;99.90
39503;DHT22;26970;49.900;10.774;2022-09-03T03:47:44;12.70;99.90
39503;DHT22;26970;49.900;10.774;2022-09-03T03:50:09;12.70;99.90
39503;DHT22;26970;49.900;10.774;2022-09-03T03:52:35;12.70;99.90
39503;DHT22;26970;49.900;10.774;2022-09-03T03:55:00;12.80;99.90
39503;DHT22;26970;49.900;10.774;2022-09-03T03:57:29;12.80;99.90
39503;DHT22;26970;49.900;10.774;2022-09-03T03:59:55;13.00;99.90
39503;DHT22;26970;49.900;10.774;2022-09-03T04:02:20;12.90;99.90
39503;DHT22;26970;49.900;10.774;2022-09-03T04:04:46;12.90;99.90
39503;DHT22;26970;49.900;10.774;2022-09-03T04:07:12;13.00;99.90
39503;DHT22;26970;49.900;10.774;2022-09-03T04:09:37;13.00;99.90
39503;DHT22;26970;49.900;10.774;2022-09-03T04:12:03;12.80;99.90
39503;DHT22;26970;49.900;10.774;2022-09-03T04:14:33;12.90;99.90
39503;DHT22;26970;49.900;10.774;2022-09-03T04:16:59;12.90;99.90
39503;DHT22;26970;49.900;10.774;2022-09-03T04:19:25;12.90;99.90
39503;DHT22;26970;49.900;10.774;2022-09-03T04:21:52;12.80;99.90
39503;DHT22;26970;49.900;10.774;2022-09-03T04:24:18;12.70;99.90
39503;DHT22;26970;49.900;10.774;2022-09-03T04:26:43;12.80;99.90
39503;DHT22;26970;49.900;10.774;2022-09-03T04:29:09;12.80;99.90
39503;DHT22;26970;49.900;10.774;2022-09-03T04:31:36;12.80;99.90
39503;DHT22;26970;49.900;10.774;2022-09-03T04:34:02;12.70;99.90
39503;DHT22;26970;49.900;10.774;2022-09-03T04:36:29;12.70;99.90
39503;DHT22;26970;49.900;10.774;2022-09-03T04:38:58;12.70;99.90
39503;DHT22;26970;49.900;10.774;2022-09-03T04:41:26;12.70;99.90
39503;DHT22;26970;49.900;10.774;2022-09-03T04:43:53;12.60;99.90
39503;DHT22;26970;49.900;10.774;2022-09-03T04:46:20;12.60;99.90
39503;DHT22;26970;49.900;10.774;2022-09-03T04:48:51;12.60;99.90
39503;DHT22;26970;49.900;10.774;2022-09-03T04:51:22;12.80;99.90
39503;DHT22;26970;49.900;10.774;2022-09-03T04:53:55;12.70;99.90
39503;DHT22;26970;49.900;10.774;2022-09-03T04:56:27;12.70;99.90
39503;DHT22;26970;49.900;10.774;2022-09-03T04:58:58;12.60;99.90
39503;DHT22;26970;49.900;10.774;2022-09-03T05:01:26;12.60;99.90
39503;DHT22;26970;49.900;10.774;2022-09-03T05:03:52;12.60;99.90
39503;DHT22;26970;49.900;10.774;2022-09-03T05:06:19;12.60;99.90
39503;DHT22;26970;49.900;10.774;2022-09-03T05:08:49;12.50;99.90
39503;DHT22;26970;49.900;10.774;2022-09-03T05:11:15;12.50;99.90
39503;DHT22;26970;49.900;10.774;2022-09-03T05:13:41;12.60;99.90
39503;DHT22;26970;49.900;10.774;2022-09-03T05:16:09;12.70;99.90
39503;DHT22;26970;49.900;10.774;2022-09-03T05:18:36;12.70;99.90
39503;DHT22;26970;49.900;10.774;2022-09-03T05:21:07;12.70;99.90
39503;DHT22;26970;49.900;10.774;2022-09-03T05:23:37;12.70;99.90
39503;DHT22;26970;49.900;10.774;2022-09-03T05:26:07;12.80;99.90
39503;DHT22;26970;49.900;10.774;2022-09-03T05:28:37;12.80;99.90
39503;DHT22;26970;49.900;10.774;2022-09-03T05:31:05;12.80;99.90
39503;DHT22;26970;49.900;10.774;2022-09-03T05:33:35;12.80;99.90
39503;DHT22;26970;49.900;10.774;2022-09-03T05:36:04;12.80;99.90
39503;DHT22;26970;49.900;10.774;2022-09-03T05:38:30;12.80;99.90
39503;DHT22;26970;49.900;10.774;2022-09-03T05:41:00;12.80;99.90
39503;DHT22;26970;49.900;10.774;2022-09-03T05:43:26;12.90;99.90
39503;DHT22;26970;49.900;10.774;2022-09-03T05:45:57;13.00;99.90
39503;DHT22;26970;49.900;10.774;2022-09-03T05:48:23;12.90;99.90
39503;DHT22;26970;49.900;10.774;2022-09-03T05:50:48;12.90;99.90
39503;DHT22;26970;49.900;10.774;2022-09-03T05:53:14;12.90;99.90
39503;DHT22;26970;49.900;10.774;2022-09-03T05:55:39;12.90;99.90
39503;DHT22;26970;49.900;10.774;2022-09-03T05:58:05;13.00;99.90
39503;DHT22;26970;49.900;10.774;2022-09-03T06:00:31;13.10;99.90
39503;DHT22;26970;49.900;10.774;2022-09-03T06:02:57;13.30;99.90
39503;DHT22;26970;49.900;10.774;2022-09-03T06:05:22;13.50;99.90
39503;DHT22;26970;49.900;10.774;2022-09-03T06:07:48;13.50;99.90
39503;DHT22;26970;49.900;10.774;2022-09-03T06:10:15;13.60;99.90
39503;DHT22;26970;49.900;10.774;2022-09-03T06:12:42;13.70;99.90
39503;DHT22;26970;49.900;10.774;2022-09-03T06:15:09;13.70;99.90
39503;DHT22;26970;49.900;10.774;2022-09-03T06:17:37;14.00;99.90
39503;DHT22;26970;49.900;10.774;2022-09-03T06:20:03;14.10;99.90
39503;DHT22;26970;49.900;10.774;2022-09-03T06:22:28;14.00;99.90
39503;DHT22;26970;49.900;10.774;2022-09-03T06:24:55;14.10;99.90
39503;DHT22;26970;49.900;10.774;2022-09-03T06:27:21;14.10;99.90
39503;DHT22;26970;49.900;10.774;2022-09-03T06:29:46;14.10;99.90
39503;DHT22;26970;49.900;10.774;2022-09-03T06:32:12;14.10;99.90
39503;DHT22;26970;49.900;10.774;2022-09-03T06:34:38;14.10;99.90
39503;DHT22;26970;49.900;10.774;2022-09-03T06:37:04;14.40;99.90
39503;DHT22;26970;49.900;10.774;2022-09-03T06:39:29;14.70;99.90
39503;DHT22;26970;49.900;10.774;2022-09-03T06:41:55;14.90;99.90
39503;DHT22;26970;49.900;10.774;2022-09-03T06:44:20;15.00;99.90
39503;DHT22;26970;49.900;10.774;2022-09-03T06:46:46;15.20;99.90
39503;DHT22;26970;49.900;10.774;2022-09-03T06:49:12;15.20;99.90
39503;DHT22;26970;49.900;10.774;2022-09-03T06:51:38;15.30;99.90
39503;DHT22;26970;49.900;10.774;2022-09-03T06:54:06;15.50;99.90
39503;DHT22;26970;49.900;10.774;2022-09-03T06:56:33;15.60;99.90
39503;DHT22;26970;49.900;10.774;2022-09-03T06:59:03;15.90;99.90
39503;DHT22;26970;49.900;10.774;2022-09-03T07:01:30;16.00;99.90
39503;DHT22;26970;49.900;10.774;2022-09-03T07:03:58;16.30;99.90
39503;DHT22;26970;49.900;10.774;2022-09-03T07:06:30;16.30;99.90
39503;DHT22;26970;49.900;10.774;2022-09-03T07:08:56;16.40;99.90
39503;DHT22;26970;49.900;10.774;2022-09-03T07:11:25;16.60;99.90
39503;DHT22;26970;49.900;10.774;2022-09-03T07:13:52;16.70;99.90
39503;DHT22;26970;49.900;10.774;2022-09-03T07:16:24;17.00;99.90
39503;DHT22;26970;49.900;10.774;2022-09-03T07:18:50;17.30;99.90
39503;DHT22;26970;49.900;10.774;2022-09-03T07:21:18;17.40;99.90
39503;DHT22;26970;49.900;10.774;2022-09-03T07:23:45;17.40;99.90
39503;DHT22;26970;49.900;10.774;2022-09-03T07:26:14;17.30;99.90
39503;DHT22;26970;49.900;10.774;2022-09-03T07:28:41;17.10;99.90
39503;DHT22;26970;49.900;10.774;2022-09-03T07:31:11;17.10;99.90
39503;DHT22;26970;49.900;10.774;2022-09-03T07:33:37;17.10;99.90
39503;DHT22;26970;49.900;10.774;2022-09-03T07:36:09;17.00;99.90
39503;DHT22;26970;49.900;10.774;2022-09-03T07:38:35;17.20;99.90
39503;DHT22;26970;49.900;10.774;2022-09-03T07:41:03;17.60;99.90
39503;DHT22;26970;49.900;10.774;2022-09-03T07:43:39;18.00;99.90
39503;DHT22;26970;49.900;10.774;2022-09-03T07:46:05;18.00;99.90
39503;DHT22;26970;49.900;10.774;2022-09-03T07:48:31;18.10;99.90
39503;DHT22;26970;49.900;10.774;2022-09-03T07:50:58;18.30;99.90
39503;DHT22;26970;49.900;10.774;2022-09-03T07:53:25;18.10;99.90
39503;DHT22;26970;49.900;10.774;2022-09-03T07:55:50;17.70;99.90
39503;DHT22;26970;49.900;10.774;2022-09-03T07:58:16;17.60;99.90
39503;DHT22;26970;49.900;10.774;2022-09-03T08:00:42;17.50;99.90
39503;DHT22;26970;49.900;10.774;2022-09-03T08:03:08;17.50;99.90
39503;DHT22;26970;49.900;10.774;2022-09-03T08:05:35;17.70;99.90
39503;DHT22;26970;49.900;10.774;2022-09-03T08:08:02;17.70;99.90
39503;DHT22;26970;49.900;10.774;2022-09-03T08:10:28;17.90;99.90
39503;DHT22;26970;49.900;10.774;2022-09-03T08:12:58;18.10;99.90
39503;DHT22;26970;49.900;10.774;2022-09-03T08:15:25;18.10;99.90
39503;DHT22;26970;49.900;10.774;2022-09-03T08:17:51;18.20;99.90
39503;DHT22;26970;49.900;10.774;2022-09-03T08:20:17;18.20;99.90
39503;DHT22;26970;49.900;10.774;2022-09-03T08:22:43;18.20;99.90
39503;DHT22;26970;49.900;10.774;2022-09-03T08:25:08;18.30;99.90
39503;DHT22;26970;49.900;10.774;2022-09-03T08:27:34;18.30;99.90
39503;DHT22;26970;49.900;10.774;2022-09-03T08:30:00;18.20;99.90
39503;DHT22;26970;49.900;10.774;2022-09-03T08:32:26;18.10;99.90
39503;DHT22;26970;49.900;10.774;2022-09-03T08:34:51;18.20;99.90
39503;DHT22;26970;49.900;10.774;2022-09-03T08:37:17;18.20;99.90
39503;DHT22;26970;49.900;10.774;2022-09-03T08:39:43;18.20;99.90
39503;DHT22;26970;49.900;10.774;2022-09-03T08:42:24;18.20;99.90
39503;DHT22;26970;49.900;10.774;2022-09-03T08:44:53;18.20;99.90
39503;DHT22;26970;49.900;10.774;2022-09-03T08:50:12;18.30;99.90
39503;DHT22;26970;49.900;10.774;2022-09-03T08:52:59;18.30;99.90
39503;DHT22;26970;49.900;10.774;2022-09-03T08:55:50;18.40;99.90
39503;DHT22;26970;49.900;10.774;2022-09-03T08:58:21;18.40;99.90
39503;DHT22;26970;49.900;10.774;2022-09-03T09:04:26;18.70;99.90
39503;DHT22;26970;49.900;10.774;2022-09-03T09:06:54;18.90;99.90
39503;DHT22;26970;49.900;10.774;2022-09-03T09:22:39;19.40;99.90
39503;DHT22;26970;49.900;10.774;2022-09-03T09:25:25;19.30;99.90
39503;DHT22;26970;49.900;10.774;2022-09-03T09:30:20;19.50;99.90
39503;DHT22;26970;49.900;10.774;2022-09-03T09:32:46;19.80;99.90
39503;DHT22;26970;49.900;10.774;2022-09-03T09:35:13;20.10;99.90
39503;DHT22;26970;49.900;10.774;2022-09-03T09:37:48;20.50;99.90
39503;DHT22;26970;49.900;10.774;2022-09-03T09:40:23;20.80;99.10
39503;DHT22;26970;49.900;10.774;2022-09-03T09:42:49;20.90;99.70
39503;DHT22;26970;49.900;10.774;2022-09-03T09:45:16;21.10;99.10
39503;DHT22;26970;49.900;10.774;2022-09-03T09:47:41;21.40;98.50
39503;DHT22;26970;49.900;10.774;2022-09-03T09:50:20;21.70;98.10
39503;DHT22;26970;49.900;10.774;2022-09-03T09:52:46;21.80;97.40
39503;DHT22;26970;49.900;10.774;2022-09-03T09:55:17;21.90;97.50
39503;DHT22;26970;49.900;10.774;2022-09-03T09:57:44;21.90;97.20
39503;DHT22;26970;49.900;10.774;2022-09-03T10:00:13;21.50;96.70
39503;DHT22;26970;49.900;10.774;2022-09-03T10:02:52;21.10;97.10
39503;DHT22;26970;49.900;10.774;2022-09-03T10:05:27;20.90;97.70
39503;DHT22;26970;49.900;10.774;2022-09-03T10:08:00;20.90;97.60
39503;DHT22;26970;49.900;10.774;2022-09-03T10:10:26;21.10;97.50
39503;DHT22;26970;49.900;10.774;2022-09-03T10:13:18;21.00;97.40
39503;DHT22;26970;49.900;10.774;2022-09-03T10:19:00;21.00;97.50
39503;DHT22;26970;49.900;10.774;2022-09-03T10:21:42;21.10;97.30
39503;DHT22;26970;49.900;10.774;2022-09-03T10:26:50;21.40;97.20
39503;DHT22;26970;49.900;10.774;2022-09-03T10:29:20;21.60;96.80
39503;DHT22;26970;49.900;10.774;2022-09-03T10:32:00;21.90;96.90
39503;DHT22;26970;49.900;10.774;2022-09-03T10:34:43;22.00;96.00
39503;DHT22;26970;49.900;10.774;2022-09-03T10:37:17;22.10;96.10
39503;DHT22;26970;49.900;10.774;2022-09-03T10:42:41;21.80;96.30
39503;DHT22;26970;49.900;10.774;2022-09-03T11:04:52;21.70;95.80
39503;DHT22;26970;49.900;10.774;2022-09-03T11:07:27;22.00;95.30
39503;DHT22;26970;49.900;10.774;2022-09-03T11:10:05;22.50;95.20
39503;DHT22;26970;49.900;10.774;2022-09-03T11:12:43;23.00;95.10
39503;DHT22;26970;49.900;10.774;2022-09-03T11:18:23;22.80;93.80
39503;DHT22;26970;49.900;10.774;2022-09-03T11:20:47;22.80;93.80
39503;DHT22;26970;49.900;10.774;2022-09-03T11:23:15;23.10;94.40
39503;DHT22;26970;49.900;10.774;2022-09-03T11:25:48;23.30;94.10
39503;DHT22;26970;49.900;10.774;2022-09-03T11:31:30;23.40;93.50
39503;DHT22;26970;49.900;10.774;2022-09-03T11:34:07;23.30;93.70
39503;DHT22;26970;49.900;10.774;2022-09-03T11:36:35;23.20;93.40
39503;DHT22;26970;49.900;10.774;2022-09-03T11:39:19;23.00;93.40
39503;DHT22;26970;49.900;10.774;2022-09-03T11:42:08;23.00;93.70
39503;DHT22;26970;49.900;10.774;2022-09-03T11:44:40;23.00;93.40
39503;DHT22;26970;49.900;10.774;2022-09-03T11:47:22;23.10;93.80
39503;DHT22;26970;49.900;10.774;2022-09-03T11:49:52;23.00;93.40
39503;DHT22;26970;49.900;10.774;2022-09-03T11:52:30;23.10;93.20
39503;DHT22;26970;49.900;10.774;2022-09-03T11:55:05;23.10;93.30
39503;DHT22;26970;49.900;10.774;2022-09-03T11:57:31;23.30;93.60
39503;DHT22;26970;49.900;10.774;2022-09-03T12:00:17;23.30;93.00
39503;DHT22;26970;49.900;10.774;2022-09-03T12:02:56;23.30;93.40
39503;DHT22;26970;49.900;10.774;2022-09-03T12:18:32;24.10;92.50
39503;DHT22;26970;49.900;10.774;2022-09-03T12:23:48;23.70;93.50
39503;DHT22;26970;49.900;10.774;2022-09-03T12:26:15;23.50;93.40
39503;DHT22;26970;49.900;10.774;2022-09-03T12:28:44;23.30;93.80
39503;DHT22;26970;49.900;10.774;2022-09-03T12:33:44;23.30;93.70
39503;DHT22;26970;49.900;10.774;2022-09-03T12:36:10;23.20;94.10
39503;DHT22;26970;49.900;10.774;2022-09-03T12:38:37;23.00;94.00
39503;DHT22;26970;49.900;10.774;2022-09-03T12:41:03;23.00;94.50
39503;DHT22;26970;49.900;10.774;2022-09-03T12:43:29;23.10;94.30
39503;DHT22;26970;49.900;10.774;2022-09-03T12:45:55;23.20;94.20
39503;DHT22;26970;49.900;10.774;2022-09-03T12:48:21;23.20;94.90
39503;DHT22;26970;49.900;10.774;2022-09-03T12:50:59;23.30;95.10
39503;DHT22;26970;49.900;10.774;2022-09-03T12:53:26;23.30;94.90
39503;DHT22;26970;49.900;10.774;2022-09-03T12:55:55;23.40;95.20
39503;DHT22;26970;49.900;10.774;2022-09-03T12:58:32;23.50;94.50
39503;DHT22;26970;49.900;10.774;2022-09-03T13:01:09;23.20;94.30
39503;DHT22;26970;49.900;10.774;2022-09-03T13:06:17;23.40;94.90
39503;DHT22;26970;49.900;10.774;2022-09-03T13:08:47;23.40;95.30
39503;DHT22;26970;49.900;10.774;2022-09-03T13:11:16;23.40;95.60
39503;DHT22;26970;49.900;10.774;2022-09-03T13:13:52;23.30;95.00
39503;DHT22;26970;49.900;10.774;2022-09-03T13:19:36;23.10;95.70
39503;DHT22;26970;49.900;10.774;2022-09-03T13:25:27;22.90;95.70
39503;DHT22;26970;49.900;10.774;2022-09-03T13:28:10;22.80;96.60
39503;DHT22;26970;49.900;10.774;2022-09-03T13:33:37;22.70;96.50
39503;DHT22;26970;49.900;10.774;2022-09-03T13:36:08;22.70;96.20
39503;DHT22;26970;49.900;10.774;2022-09-03T13:49:39;23.00;96.30
39503;DHT22;26970;49.900;10.774;2022-09-03T13:52:36;23.10;96.20
39503;DHT22;26970;49.900;10.774;2022-09-03T13:58:03;23.50;96.20
39503;DHT22;26970;49.900;10.774;2022-09-03T14:00:43;23.60;95.90
39503;DHT22;26970;49.900;10.774;2022-09-03T14:09:11;23.70;96.10
39503;DHT22;26970;49.900;10.774;2022-09-03T14:12:03;23.60;96.20
39503;DHT22;26970;49.900;10.774;2022-09-03T14:14:54;23.50;95.50
39503;DHT22;26970;49.900;10.774;2022-09-03T14:20:46;23.10;96.10
39503;DHT22;26970;49.900;10.774;2022-09-03T14:23:41;23.10;96.30
39503;DHT22;26970;49.900;10.774;2022-09-03T14:26:17;23.20;96.60
39503;DHT22;26970;49.900;10.774;2022-09-03T14:28:49;23.30;96.00
39503;DHT22;26970;49.900;10.774;2022-09-03T14:39:37;24.10;96.10
39503;DHT22;26970;49.900;10.774;2022-09-03T14:47:55;23.90;96.50
39503;DHT22;26970;49.900;10.774;2022-09-03T15:07:29;23.40;96.70
39503;DHT22;26970;49.900;10.774;2022-09-03T15:10:10;23.40;97.20
39503;DHT22;26970;49.900;10.774;2022-09-03T15:12:39;23.40;97.30
39503;DHT22;26970;49.900;10.774;2022-09-03T15:15:15;23.30;97.30
39503;DHT22;26970;49.900;10.774;2022-09-03T15:17:45;23.30;97.40
39503;DHT22;26970;49.900;10.774;2022-09-03T15:34:44;22.70;98.70
39503;DHT22;26970;49.900;10.774;2022-09-03T15:37:22;22.70;98.70
39503;DHT22;26970;49.900;10.774;2022-09-03T15:42:42;23.10;98.70
39503;DHT22;26970;49.900;10.774;2022-09-03T15:45:19;23.10;98.70
39503;DHT22;26970;49.900;10.774;2022-09-03T15:53:28;23.40;98.20
39503;DHT22;26970;49.900;10.774;2022-09-03T15:56:26;23.40;98.30
39503;DHT22;26970;49.900;10.774;2022-09-03T15:59:16;23.30;98.80
39503;DHT22;26970;49.900;10.774;2022-09-03T16:02:09;23.30;98.50
39503;DHT22;26970;49.900;10.774;2022-09-03T16:04:53;23.20;98.50
39503;DHT22;26970;49.900;10.774;2022-09-03T16:12:55;22.60;99.20
39503;DHT22;26970;49.900;10.774;2022-09-03T16:15:40;22.50;98.90
39503;DHT22;26970;49.900;10.774;2022-09-03T16:18:25;22.40;99.80
39503;DHT22;26970;49.900;10.774;2022-09-03T16:21:21;22.40;99.80
39503;DHT22;26970;49.900;10.774;2022-09-03T16:26:55;22.40;99.90
39503;DHT22;26970;49.900;10.774;2022-09-03T16:29:26;22.30;99.90
39503;DHT22;26970;49.900;10.774;2022-09-03T16:46:02;22.20;99.90
39503;DHT22;26970;49.900;10.774;2022-09-03T16:48:53;22.10;99.90
39503;DHT22;26970;49.900;10.774;2022-09-03T16:51:54;21.80;99.90
39503;DHT22;26970;49.900;10.774;2022-09-03T17:03:02;20.80;99.90
39503;DHT22;26970;49.900;10.774;2022-09-03T17:17:08;19.80;99.90
39503;DHT22;26970;49.900;10.774;2022-09-03T17:22:44;19.50;99.90
39503;DHT22;26970;49.900;10.774;2022-09-03T17:36:35;17.80;99.90
39503;DHT22;26970;49.900;10.774;2022-09-03T17:41:49;17.50;99.90
39503;DHT22;26970;49.900;10.774;2022-09-03T17:50:21;17.30;99.90
39503;DHT22;26970;49.900;10.774;2022-09-03T17:52:53;17.30;99.90
39503;DHT22;26970;49.900;10.774;2022-09-03T17:55:53;17.20;99.90
39503;DHT22;26970;49.900;10.774;2022-09-03T17:58:31;17.20;99.90
39503;DHT22;26970;49.900;10.774;2022-09-03T18:03:48;17.10;99.90
39503;DHT22;26970;49.900;10.774;2022-09-03T18:06:51;17.20;99.90
39503;DHT22;26970;49.900;10.774;2022-09-03T18:09:23;17.10;99.90
39503;DHT22;26970;49.900;10.774;2022-09-03T18:14:49;17.10;99.90
39503;DHT22;26970;49.900;10.774;2022-09-03T18:17:27;17.00;99.90
39503;DHT22;26970;49.900;10.774;2022-09-03T18:20:01;17.10;99.90
39503;DHT22;26970;49.900;10.774;2022-09-03T18:22:58;17.10;99.90
39503;DHT22;26970;49.900;10.774;2022-09-03T18:25:47;17.40;99.90
39503;DHT22;26970;49.900;10.774;2022-09-03T18:28:49;17.60;99.90
39503;DHT22;26970;49.900;10.774;2022-09-03T18:31:34;17.70;99.90
39503;DHT22;26970;49.900;10.774;2022-09-03T18:34:24;17.70;99.90
39503;DHT22;26970;49.900;10.774;2022-09-03T18:37:11;17.60;99.90
39503;DHT22;26970;49.900;10.774;2022-09-03T18:39:55;17.50;99.90
39503;DHT22;26970;49.900;10.774;2022-09-03T18:46:00;17.40;99.90
39503;DHT22;26970;49.900;10.774;2022-09-03T18:48:55;17.30;99.90
39503;DHT22;26970;49.900;10.774;2022-09-03T18:51:50;17.40;99.90
39503;DHT22;26970;49.900;10.774;2022-09-03T19:01:10;17.40;99.90
39503;DHT22;26970;49.900;10.774;2022-09-03T19:07:11;17.40;99.90
39503;DHT22;26970;49.900;10.774;2022-09-03T19:10:13;17.30;99.90
39503;DHT22;26970;49.900;10.774;2022-09-03T19:19:44;16.90;99.90
39503;DHT22;26970;49.900;10.774;2022-09-03T19:22:37;16.90;99.90
39503;DHT22;26970;49.900;10.774;2022-09-03T19:25:22;16.90;99.90
39503;DHT22;26970;49.900;10.774;2022-09-03T19:28:22;16.80;99.90
39503;DHT22;26970;49.900;10.774;2022-09-03T19:34:55;16.60;99.90
39503;DHT22;26970;49.900;10.774;2022-09-03T19:37:27;16.40;99.90
39503;DHT22;26970;49.900;10.774;2022-09-03T19:40:51;16.30;99.90
39503;DHT22;26970;49.900;10.774;2022-09-03T19:46:59;16.20;99.90
39503;DHT22;26970;49.900;10.774;2022-09-03T19:50:09;16.20;99.90
39503;DHT22;26970;49.900;10.774;2022-09-03T19:55:47;16.20;99.90
39503;DHT22;26970;49.900;10.774;2022-09-03T19:58:35;16.40;99.90
39503;DHT22;26970;49.900;10.774;2022-09-03T20:01:25;16.60;99.90
39503;DHT22;26970;49.900;10.774;2022-09-03T20:04:14;16.70;99.90
39503;DHT22;26970;49.900;10.774;2022-09-03T20:07:02;16.70;99.90
39503;DHT22;26970;49.900;10.774;2022-09-03T20:09:47;16.80;99.90
39503;DHT22;26970;49.900;10.774;2022-09-03T20:12:35;16.90;99.90
39503;DHT22;26970;49.900;10.774;2022-09-03T20:15:04;17.00;99.90
39503;DHT22;26970;49.900;10.774;2022-09-03T20:18:43;17.00;99.90
39503;DHT22;26970;49.900;10.774;2022-09-03T20:20:43;17.10;99.90
39503;DHT22;26970;49.900;10.774;2022-09-03T20:23:13;17.10;99.90
39503;DHT22;26970;49.900;10.774;2022-09-03T20:26:13;17.10;99.90
39503;DHT22;26970;49.900;10.774;2022-09-03T20:31:54;16.90;99.90
39503;DHT22;26970;49.900;10.774;2022-09-03T20:34:35;16.70;99.90
39503;DHT22;26970;49.900;10.774;2022-09-03T20:40:28;16.30;99.90
39503;DHT22;26970;49.900;10.774;2022-09-03T20:48:35;15.80;99.90
39503;DHT22;26970;49.900;10.774;2022-09-03T20:51:08;15.70;99.90
39503;DHT22;26970;49.900;10.774;2022-09-03T20:53:49;15.60;99.90
39503;DHT22;26970;49.900;10.774;2022-09-03T20:59:12;15.50;99.90
39503;DHT22;26970;49.900;10.774;2022-09-03T21:04:32;15.40;99.90
39503;DHT22;26970;49.900;10.774;2022-09-03T21:07:10;15.40;99.90
39503;DHT22;26970;49.900;10.774;2022-09-03T21:15:44;15.70;99.90
39503;DHT22;26970;49.900;10.774;2022-09-03T21:20:55;15.90;99.90
39503;DHT22;26970;49.900;10.774;2022-09-03T21:23:26;15.80;99.90
39503;DHT22;26970;49.900;10.774;2022-09-03T21:28:35;15.60;99.90
39503;DHT22;26970;49.900;10.774;2022-09-03T21:34:06;15.50;99.90